Time;durP1;ratioP1;P1;durP2;ratioP2;P2;SDS_P1;SDS_P2;PMS_P1;PMS_P2;Temp;Humidity;BMP_temperature;BMP_pressure;BME280_temperature;BME280_humidity;BME280_pressure;Samples;Min_cycle;Max_cycle;Signal;HPM_P1;HPM_P2
2023/06/26 00:00:12;;;;;;;;;12.50;12.00;;;;;24.49;47.74;100889.67;112221;1263;20703;-37
2023/06/26 00:02:59;;;;;;;;;9.50;9.50;;;;;24.49;47.68;100887.86;112089;1263;23120;-38
2023/06/26 00:05:30;;;;;;;;;11.00;11.00;;;;;24.49;47.89;100888.73;112249;1248;21285;-38
2023/06/26 00:08:00;;;;;;;;;13.00;12.00;;;;;24.49;47.75;100884.61;112204;1263;21474;-38
2023/06/26 00:10:27;;;;;;;;;12.00;10.00;;;;;24.49;47.76;100883.34;112216;1263;20666;-37
2023/06/26 00:12:54;;;;;;;;;17.50;13.00;;;;;24.48;47.93;100883.48;112100;1247;20058;-38
2023/06/26 00:15:22;;;;;;;;;12.33;11.33;;;;;24.46;47.85;100882.65;112258;1263;21923;-38
2023/06/26 00:17:50;;;;;;;;;12.50;10.00;;;;;24.45;47.91;100886.34;112136;1263;20081;-38
2023/06/26 00:20:18;;;;;;;;;13.00;12.00;;;;;24.45;48.06;100885.16;112213;1247;20033;-38
2023/06/26 00:22:46;;;;;;;;;10.00;10.00;;;;;24.45;48.26;100888.21;112273;1248;19444;-38
2023/06/26 00:25:13;;;;;;;;;10.00;9.00;;;;;24.45;48.05;100885.20;112167;1256;20119;-38
2023/06/26 00:27:40;;;;;;;;;10.00;10.00;;;;;24.41;48.18;100880.73;112122;1263;19963;-37
2023/06/26 00:30:08;;;;;;;;;13.00;12.00;;;;;24.40;48.10;100881.58;112215;1247;22013;-37
2023/06/26 00:32:35;;;;;;;;;11.33;10.67;;;;;24.39;48.14;100875.71;112096;1263;20249;-37
2023/06/26 00:35:02;;;;;;;;;10.00;10.00;;;;;24.39;48.25;100879.21;112234;1263;19944;-37
2023/06/26 00:37:30;;;;;;;;;10.00;10.00;;;;;24.39;48.26;100879.17;112178;1252;20892;-37
2023/06/26 00:39:57;;;;;;;;;12.00;10.00;;;;;24.39;48.27;100879.38;112311;1248;21521;-37
2023/06/26 00:42:24;;;;;;;;;14.00;13.00;;;;;24.39;48.34;100877.02;112191;1248;20053;-37
2023/06/26 00:44:52;;;;;;;;;12.00;10.00;;;;;24.38;48.35;100879.33;112345;1248;20802;-37
2023/06/26 00:47:19;;;;;;;;;13.00;10.00;;;;;24.37;48.24;100877.80;112174;1248;21541;-37
2023/06/26 00:49:46;;;;;;;;;13.50;12.00;;;;;24.35;48.28;100878.52;112372;1263;18666;-37
2023/06/26 00:52:14;;;;;;;;;12.00;10.00;;;;;24.35;48.38;100882.11;112212;1248;20724;-37
2023/06/26 00:54:41;;;;;;;;;10.00;10.00;;;;;24.34;48.41;100881.30;112326;1263;20605;-36
2023/06/26 00:57:08;;;;;;;;;12.50;12.00;;;;;24.33;48.43;100879.59;112006;1263;168455;-37
2023/06/26 00:59:36;;;;;;;;;11.33;11.33;;;;;24.31;48.41;100876.84;112297;1263;21338;-38
2023/06/26 01:02:03;;;;;;;;;13.00;12.00;;;;;24.31;48.43;100875.27;112165;1263;20082;-37
2023/06/26 01:04:32;;;;;;;;;13.67;12.33;;;;;24.30;48.43;100876.98;112216;1263;18856;-37
2023/06/26 01:06:59;;;;;;;;;11.00;10.00;;;;;24.29;48.67;100870.20;112135;1255;20969;-37
2023/06/26 01:09:27;;;;;;;;;12.00;10.00;;;;;24.27;48.66;100871.74;112243;1263;20169;-37
2023/06/26 01:11:54;;;;;;;;;16.00;13.00;;;;;24.27;48.49;100867.41;112119;1257;20006;-38
2023/06/26 01:14:21;;;;;;;;;10.00;9.50;;;;;24.27;48.79;100872.45;112289;1263;19425;-37
2023/06/26 01:16:49;;;;;;;;;13.00;12.00;;;;;24.26;48.68;100868.95;112149;1256;20131;-38
2023/06/26 01:19:19;;;;;;;;;13.00;12.50;;;;;24.25;48.58;100866.49;112315;1263;19999;-38
2023/06/26 01:21:46;;;;;;;;;10.00;9.00;;;;;24.23;48.85;100869.77;112278;1263;19522;-37
2023/06/26 01:24:14;;;;;;;;;10.00;10.00;;;;;24.23;48.54;100864.91;112113;1262;20391;-39
2023/06/26 01:26:42;;;;;;;;;12.00;12.00;;;;;24.23;48.60;100865.92;112267;1247;21202;-37
2023/06/26 01:29:09;;;;;;;;;10.00;10.00;;;;;24.23;48.54;100870.05;112138;1247;19440;-37
2023/06/26 01:31:36;;;;;;;;;13.00;13.00;;;;;24.22;48.68;100869.04;112289;1263;22024;-37
2023/06/26 01:34:03;;;;;;;;;14.67;13.00;;;;;24.23;48.64;100864.15;112120;1263;19961;-36
2023/06/26 01:36:31;;;;;;;;;11.00;10.00;;;;;24.22;48.83;100865.41;112335;1247;19641;-37
2023/06/26 01:38:58;;;;;;;;;12.00;12.00;;;;;24.22;48.91;100863.02;112178;1248;21307;-37
2023/06/26 01:41:25;;;;;;;;;12.00;10.00;;;;;24.21;48.77;100861.67;112102;1248;20169;-37
2023/06/26 01:43:53;;;;;;;;;13.00;12.00;;;;;24.22;48.90;100860.99;112168;1248;19391;-38
2023/06/26 01:46:20;;;;;;;;;11.00;10.00;;;;;24.21;48.83;100859.27;112043;1263;21868;-38
2023/06/26 01:48:47;;;;;;;;;13.67;12.33;;;;;24.20;48.86;100863.26;112207;1263;18894;-38
2023/06/26 01:51:15;;;;;;;;;12.00;10.00;;;;;24.20;49.12;100860.35;112107;1254;19689;-38
2023/06/26 01:53:42;;;;;;;;;13.50;12.50;;;;;24.20;49.07;100861.11;112260;1248;21527;-37
2023/06/26 01:56:10;;;;;;;;;13.50;13.50;;;;;24.16;49.08;100856.31;112099;1251;20061;-38
2023/06/26 01:58:37;;;;;;;;;16.00;13.00;;;;;24.17;49.09;100860.10;112227;1247;20844;-37
2023/06/26 02:01:04;;;;;;;;;13.00;12.00;;;;;24.13;49.05;100851.19;112089;1254;21560;-37
2023/06/26 02:03:32;;;;;;;;;14.00;13.00;;;;;24.13;48.99;100850.13;112268;1263;21049;-37
2023/06/26 02:05:59;;;;;;;;;13.50;13.50;;;;;24.13;49.04;100846.16;112097;1263;19541;-37
2023/06/26 02:08:26;;;;;;;;;16.00;12.00;;;;;24.12;49.07;100841.10;112262;1262;21445;-37
2023/06/26 02:10:54;;;;;;;;;17.00;16.00;;;;;24.11;49.10;100841.96;112170;1248;20153;-37
2023/06/26 02:13:21;;;;;;;;;17.67;17.00;;;;;24.10;49.02;100837.76;112304;1248;19673;-37
2023/06/26 02:15:48;;;;;;;;;17.00;15.50;;;;;24.10;49.19;100840.73;112140;1263;20153;-37
2023/06/26 02:18:16;;;;;;;;;16.00;15.00;;;;;24.09;49.26;100840.98;112308;1251;19994;-37
2023/06/26 02:20:43;;;;;;;;;12.00;12.00;;;;;24.09;49.14;100840.81;112149;1263;21969;-36
2023/06/26 02:23:11;;;;;;;;;16.00;13.00;;;;;24.07;49.14;100841.55;112274;1263;20096;-37
2023/06/26 02:25:38;;;;;;;;;16.00;15.00;;;;;24.06;49.16;100837.86;112174;1248;20012;-37
2023/06/26 02:28:05;;;;;;;;;12.00;12.00;;;;;24.06;49.14;100838.51;112093;1248;20881;-37
2023/06/26 02:30:33;;;;;;;;;16.00;13.00;;;;;24.05;49.14;100840.73;112185;1248;21487;-37
2023/06/26 02:33:00;;;;;;;;;15.50;15.00;;;;;24.05;49.29;100838.84;112055;1263;21065;-37
2023/06/26 02:35:27;;;;;;;;;19.00;16.00;;;;;24.04;49.38;100840.56;112211;1263;20774;-37
2023/06/26 02:37:55;;;;;;;;;16.00;13.00;;;;;24.03;49.22;100839.80;112082;1263;22847;-37
2023/06/26 02:40:22;;;;;;;;;19.00;16.00;;;;;24.03;49.21;100838.16;112241;1263;18752;-37
2023/06/26 02:42:49;;;;;;;;;17.00;14.00;;;;;24.02;49.23;100841.52;112092;1263;19445;-37
2023/06/26 02:45:17;;;;;;;;;15.67;13.67;;;;;24.01;49.27;100841.25;112261;1248;23014;-37
2023/06/26 02:47:44;;;;;;;;;15.00;12.50;;;;;24.01;49.13;100840.43;112125;1248;20026;-37
2023/06/26 02:50:11;;;;;;;;;16.33;15.00;;;;;24.00;49.10;100839.96;112294;1262;19445;-37
2023/06/26 02:52:39;;;;;;;;;15.00;15.00;;;;;23.78;49.55;100836.69;112124;1248;21631;-37
2023/06/26 02:55:06;;;;;;;;;19.67;19.00;;;;;23.50;50.55;100843.73;112292;1248;20011;-37
2023/06/26 02:57:33;;;;;;;;;19.00;18.67;;;;;23.28;51.10;100842.64;112179;1263;19383;-36
2023/06/26 03:00:01;;;;;;;;;21.00;21.00;;;;;23.12;51.48;100844.03;112268;1248;21715;-37
2023/06/26 03:02:28;;;;;;;;;16.00;15.00;;;;;23.05;51.73;100848.65;112163;1263;18826;-37
2023/06/26 03:04:57;;;;;;;;;18.50;17.00;;;;;23.00;51.84;100849.45;112302;1263;21205;-37
2023/06/26 03:07:24;;;;;;;;;17.00;17.00;;;;;23.03;51.83;100850.13;112119;1255;21416;-37
2023/06/26 03:09:52;;;;;;;;;18.00;15.00;;;;;22.94;52.07;100848.58;112277;1247;20460;-36
2023/06/26 03:12:19;;;;;;;;;18.67;18.00;;;;;22.84;52.26;100850.67;112127;1263;19565;-36
2023/06/26 03:14:46;;;;;;;;;18.00;17.00;;;;;22.77;52.52;100849.44;112326;1248;22750;-36
2023/06/26 03:17:14;;;;;;;;;15.00;14.50;;;;;22.73;52.67;100850.38;112273;1248;18646;-36
2023/06/26 03:19:41;;;;;;;;;15.00;14.50;;;;;22.71;52.59;100852.06;112343;1248;20796;-37
2023/06/26 03:22:08;;;;;;;;;15.00;15.00;;;;;22.68;52.62;100856.36;112155;1248;21470;-36
2023/06/26 03:24:36;;;;;;;;;17.50;14.50;;;;;22.61;52.80;100848.17;112244;1247;18702;-36
2023/06/26 03:27:03;;;;;;;;;15.00;15.00;;;;;22.59;53.06;100845.88;112184;1248;22220;-37
2023/06/26 03:29:30;;;;;;;;;20.00;18.00;;;;;22.59;52.94;100844.99;112031;1248;21763;-37
2023/06/26 03:31:58;;;;;;;;;18.67;18.67;;;;;22.58;53.00;100843.90;112201;1248;20022;-36
2023/06/26 03:34:25;;;;;;;;;20.50;17.50;;;;;22.57;53.13;100843.36;112079;1248;20858;-37
2023/06/26 03:36:52;;;;;;;;;18.00;18.00;;;;;22.61;52.96;100840.31;112234;1248;21576;-37
2023/06/26 03:39:20;;;;;;;;;24.00;23.00;;;;;22.63;52.99;100840.61;112110;1263;18763;-37
2023/06/26 03:41:47;;;;;;;;;20.50;19.00;;;;;22.54;53.39;100841.69;112230;1248;19898;-37
2023/06/26 03:44:15;;;;;;;;;36.00;27.50;;;;;22.51;53.42;100840.21;112105;1263;20148;-37
2023/06/26 03:46:42;;;;;;;;;26.50;24.00;;;;;22.50;53.46;100844.14;112251;1263;18803;-36
2023/06/26 03:49:10;;;;;;;;;25.00;21.00;;;;;22.51;53.35;100846.77;112067;1263;21042;-36
2023/06/26 03:51:38;;;;;;;;;22.00;19.00;;;;;22.50;53.55;100847.20;112194;1248;22698;-37
2023/06/26 03:54:05;;;;;;;;;29.00;23.00;;;;;22.47;53.51;100842.91;112124;1263;18713;-37
2023/06/26 03:56:32;;;;;;;;;30.00;27.00;;;;;22.46;53.52;100843.64;112238;1263;20524;-37
2023/06/26 03:59:00;;;;;;;;;27.67;25.67;;;;;22.45;53.69;100841.79;112100;1248;21750;-37
2023/06/26 04:01:27;;;;;;;;;29.50;26.50;;;;;22.47;53.75;100845.73;112245;1263;19932;-37
2023/06/26 04:03:54;;;;;;;;;20.50;17.50;;;;;22.55;53.42;100843.80;112116;1263;19451;-37
2023/06/26 04:06:22;;;;;;;;;21.00;21.00;;;;;22.56;53.58;100842.80;112273;1263;20007;-37
2023/06/26 04:08:49;;;;;;;;;26.50;24.50;;;;;22.51;53.72;100839.20;112116;1248;18819;-37
2023/06/26 04:11:16;;;;;;;;;25.00;25.00;;;;;22.50;53.92;100838.52;112266;1248;20982;-37
2023/06/26 04:13:44;;;;;;;;;28.00;27.00;;;;;22.54;53.75;100845.71;112126;1263;20566;-37
2023/06/26 04:16:12;;;;;;;;;26.00;24.00;;;;;22.55;53.78;100844.44;112297;1263;18747;-37
2023/06/26 04:18:39;;;;;;;;;30.67;27.00;;;;;22.53;53.65;100841.46;112074;1248;20937;-38
2023/06/26 04:21:07;;;;;;;;;25.50;23.00;;;;;22.53;54.03;100841.85;112260;1247;20295;-37
2023/06/26 04:23:34;;;;;;;;;21.00;18.00;;;;;22.60;53.77;100838.59;112097;1263;20064;-37
2023/06/26 04:26:02;;;;;;;;;16.33;16.33;;;;;22.63;54.06;100836.95;112256;1248;19409;-37
2023/06/26 04:28:29;;;;;;;;;26.00;24.00;;;;;22.64;54.08;100832.86;112093;1263;21456;-37
2023/06/26 04:30:57;;;;;;;;;30.50;26.00;;;;;22.61;54.24;100834.98;112256;1248;20032;-37
2023/06/26 04:33:25;;;;;;;;;25.00;23.00;;;;;22.59;54.16;100835.08;112081;1263;19338;-37
2023/06/26 04:35:52;;;;;;;;;27.00;24.00;;;;;22.62;54.10;100835.22;112185;1248;21528;-37
2023/06/26 04:38:20;;;;;;;;;24.50;21.00;;;;;22.70;54.13;100836.34;112123;1255;19930;-37
2023/06/26 04:40:47;;;;;;;;;21.00;18.00;;;;;22.71;54.14;100837.86;112201;1248;21038;-37
2023/06/26 04:43:15;;;;;;;;;21.00;18.00;;;;;22.72;54.00;100840.27;112076;1248;20134;-37
2023/06/26 04:45:42;;;;;;;;;21.00;18.00;;;;;22.66;54.44;100838.77;112239;1248;20048;-38
2023/06/26 04:48:10;;;;;;;;;17.00;17.00;;;;;22.74;54.03;100838.83;112096;1263;19671;-37
2023/06/26 04:50:37;;;;;;;;;19.33;19.00;;;;;22.77;54.00;100837.69;112223;1263;20371;-37
2023/06/26 04:53:04;;;;;;;;;35.00;26.00;;;;;22.75;54.19;100836.11;112126;1256;20023;-37
2023/06/26 04:55:32;;;;;;;;;22.00;19.00;;;;;22.76;54.42;100836.34;112247;1248;20861;-37
2023/06/26 04:57:59;;;;;;;;;17.00;17.00;;;;;22.76;54.43;100834.91;112116;1247;20122;-37
2023/06/26 05:00:26;;;;;;;;;19.00;18.00;;;;;22.69;54.36;100836.64;112289;1248;20214;-37
2023/06/26 05:03:00;;;;;;;;;21.00;18.00;;;;;22.62;54.25;100836.65;112103;1248;22095;-37
2023/06/26 05:05:28;;;;;;;;;22.00;17.00;;;;;22.60;54.50;100838.37;112151;1263;20436;-37
2023/06/26 05:07:55;;;;;;;;;18.50;18.00;;;;;22.60;54.67;100836.92;112143;1248;20368;-37
2023/06/26 05:10:23;;;;;;;;;23.00;20.00;;;;;22.63;55.00;100838.34;112207;1257;20942;-37
2023/06/26 05:12:50;;;;;;;;;17.00;15.00;;;;;22.65;54.91;100836.94;112079;1255;21454;-37
2023/06/26 05:15:17;;;;;;;;;21.00;18.00;;;;;22.74;54.56;100834.34;112188;1263;18752;-37
2023/06/26 05:17:45;;;;;;;;;24.50;21.50;;;;;22.84;54.36;100834.10;112102;1248;21249;-38
2023/06/26 05:20:12;;;;;;;;;22.33;20.00;;;;;22.86;54.55;100829.81;112217;1256;21304;-37
2023/06/26 05:22:39;;;;;;;;;26.50;21.50;;;;;23.05;54.56;100830.56;112110;1247;19958;-37
2023/06/26 05:25:07;;;;;;;;;24.00;19.00;;;;;23.09;54.22;100824.73;112255;1247;19517;-37
2023/06/26 05:27:34;;;;;;;;;25.00;22.00;;;;;22.98;54.21;100823.36;112123;1254;22827;-37
2023/06/26 05:30:01;;;;;;;;;24.00;19.00;;;;;22.97;54.44;100822.42;112271;1248;20061;-37
2023/06/26 05:32:29;;;;;;;;;17.50;15.00;;;;;22.94;54.62;100818.02;112108;1263;19566;-37
2023/06/26 05:34:56;;;;;;;;;18.00;17.50;;;;;22.92;54.94;100821.42;112313;1256;20192;-37
2023/06/26 05:37:23;;;;;;;;;16.00;14.00;;;;;23.01;54.86;100821.73;112142;1248;20058;-37
2023/06/26 05:39:51;;;;;;;;;18.00;15.00;;;;;23.02;54.81;100821.40;112289;1247;22114;-38
2023/06/26 05:42:18;;;;;;;;;16.00;14.00;;;;;23.07;54.85;100819.02;112147;1263;21580;-38
2023/06/26 05:44:45;;;;;;;;;16.00;15.00;;;;;23.14;54.84;100820.33;112110;1248;20015;-38
2023/06/26 05:47:13;;;;;;;;;20.00;18.00;;;;;23.24;54.56;100816.00;112200;1263;19431;-38
2023/06/26 05:49:40;;;;;;;;;19.00;17.00;;;;;23.24;54.68;100817.63;112074;1248;20134;-37
2023/06/26 05:52:07;;;;;;;;;19.00;18.00;;;;;23.28;54.93;100815.70;112204;1263;18949;-38
2023/06/26 05:54:35;;;;;;;;;18.00;15.33;;;;;23.41;54.83;100810.39;112112;1248;21060;-39
2023/06/26 05:57:02;;;;;;;;;15.00;14.00;;;;;23.41;54.78;100809.48;112193;1263;20317;-38
2023/06/26 05:59:30;;;;;;;;;21.50;20.00;;;;;23.56;54.61;100806.27;112147;1248;20039;-38
2023/06/26 06:01:57;;;;;;;;;18.00;16.00;;;;;23.72;54.35;100807.23;112247;1248;20858;-38
2023/06/26 06:04:24;;;;;;;;;17.33;16.67;;;;;23.74;54.15;100804.02;112122;1248;21780;-38
2023/06/26 06:06:52;;;;;;;;;20.00;18.33;;;;;23.85;53.86;100802.85;112264;1248;21369;-38
2023/06/26 06:09:19;;;;;;;;;20.00;16.00;;;;;23.85;53.82;100801.92;112101;1263;21049;-38
2023/06/26 06:11:46;;;;;;;;;22.00;19.00;;;;;23.86;54.15;100800.88;112291;1263;20147;-38
2023/06/26 06:14:14;;;;;;;;;20.00;18.00;;;;;23.82;54.10;100803.53;112114;1263;19919;-38
2023/06/26 06:16:41;;;;;;;;;18.50;18.00;;;;;23.90;53.62;100802.15;112278;1263;20793;-38
2023/06/26 06:19:11;;;;;;;;;15.33;15.00;;;;;23.98;53.79;100799.06;112167;1256;22944;-38
2023/06/26 06:21:38;;;;;;;;;18.50;18.50;;;;;24.02;53.94;100800.83;112172;1257;20144;-38
2023/06/26 06:24:06;;;;;;;;;16.00;15.00;;;;;24.07;53.67;100796.69;112113;1248;20881;-39
2023/06/26 06:26:33;;;;;;;;;21.00;19.00;;;;;24.08;53.74;100797.67;112160;1248;21530;-39
2023/06/26 06:29:01;;;;;;;;;17.00;15.67;;;;;24.07;53.76;100795.02;112255;1247;20052;-39
2023/06/26 06:31:28;;;;;;;;;23.00;20.00;;;;;24.10;53.91;100801.27;112180;1263;20772;-38
2023/06/26 06:33:56;;;;;;;;;19.33;16.33;;;;;24.12;53.76;100798.21;112174;1256;20338;-39
2023/06/26 06:36:23;;;;;;;;;22.00;20.00;;;;;24.13;53.80;100795.95;112178;1248;18637;-39
2023/06/26 06:38:50;;;;;;;;;17.00;16.00;;;;;24.24;54.26;100790.81;112076;1263;19432;-38
2023/06/26 06:41:18;;;;;;;;;19.00;18.00;;;;;24.22;55.06;100792.66;112219;1248;21711;-38
2023/06/26 06:43:45;;;;;;;;;21.00;19.00;;;;;24.31;55.39;100793.09;112095;1263;18793;-38
2023/06/26 06:46:12;;;;;;;;;21.00;19.00;;;;;24.36;55.40;100790.08;112208;1263;21028;-39
2023/06/26 06:48:40;;;;;;;;;20.00;17.00;;;;;24.42;55.33;100793.63;112102;1251;21765;-39
2023/06/26 06:51:07;;;;;;;;;17.00;17.00;;;;;24.53;55.54;100786.36;112233;1262;18993;-38
2023/06/26 06:53:34;;;;;;;;;17.00;17.00;;;;;24.60;55.44;100784.85;112117;1248;21036;-38
2023/06/26 06:56:02;;;;;;;;;19.33;19.00;;;;;24.60;55.32;100784.93;112264;1248;21673;-38
2023/06/26 06:58:30;;;;;;;;;25.00;20.00;;;;;24.67;55.19;100791.09;112104;1263;18617;-38
2023/06/26 07:00:58;;;;;;;;;19.00;16.00;;;;;24.70;55.41;100787.37;112210;1248;20671;-38
2023/06/26 07:03:25;;;;;;;;;16.00;15.00;;;;;24.72;55.34;100786.92;112069;1263;20407;-37
2023/06/26 07:05:52;;;;;;;;;16.50;15.00;;;;;24.80;54.85;100790.54;112220;1262;19773;-39
2023/06/26 07:08:20;;;;;;;;;14.00;13.00;;;;;25.02;53.73;100787.63;112112;1248;21000;-38
2023/06/26 07:10:47;;;;;;;;;12.00;12.00;;;;;25.09;52.71;100792.34;112233;1255;21970;-38
2023/06/26 07:13:14;;;;;;;;;17.00;13.00;;;;;25.01;52.32;100791.83;112121;1248;20366;-39
2023/06/26 07:15:42;;;;;;;;;14.50;13.00;;;;;25.06;52.43;100792.34;112242;1248;20875;-38
2023/06/26 07:18:10;;;;;;;;;18.00;16.00;;;;;25.10;52.17;100792.48;112077;1248;21684;-38
2023/06/26 07:20:37;;;;;;;;;16.00;14.00;;;;;25.18;52.28;100788.59;112252;1248;20018;-38
2023/06/26 07:23:04;;;;;;;;;17.50;17.00;;;;;25.21;52.48;100790.34;112084;1263;20938;-37
2023/06/26 07:25:32;;;;;;;;;20.00;17.00;;;;;25.13;52.97;100790.14;112257;1255;21475;-38
2023/06/26 07:27:59;;;;;;;;;21.00;16.00;;;;;25.10;53.34;100786.20;112136;1263;18873;-38
2023/06/26 07:30:26;;;;;;;;;17.00;16.00;;;;;25.07;53.37;100791.70;112273;1262;19642;-39
2023/06/26 07:32:54;;;;;;;;;15.33;15.33;;;;;25.11;52.87;100788.15;112136;1257;21459;-39
2023/06/26 07:35:21;;;;;;;;;17.00;15.33;;;;;25.26;51.77;100788.96;112300;1248;20425;-38
2023/06/26 07:37:48;;;;;;;;;16.67;16.67;;;;;25.39;51.64;100785.67;112157;1248;22333;-37
2023/06/26 07:40:17;;;;;;;;;22.00;19.00;;;;;25.43;51.57;100783.54;112194;1263;20086;-38
2023/06/26 07:42:46;;;;;;;;;17.00;17.00;;;;;25.28;51.66;100786.30;112155;1254;19886;-38
2023/06/26 07:45:13;;;;;;;;;17.00;16.00;;;;;25.19;52.27;100784.79;112158;1251;21999;-38
2023/06/26 07:47:40;;;;;;;;;18.00;16.50;;;;;25.26;52.11;100785.38;112056;1248;21394;-37
2023/06/26 07:50:08;;;;;;;;;16.00;16.00;;;;;25.38;52.15;100780.05;112209;1248;19941;-38
2023/06/26 07:52:35;;;;;;;;;17.00;16.50;;;;;25.51;51.74;100779.41;112098;1256;22142;-38
2023/06/26 07:55:03;;;;;;;;;20.00;17.00;;;;;25.42;52.12;100775.25;112199;1263;20791;-38
2023/06/26 07:57:32;;;;;;;;;18.67;17.00;;;;;25.49;51.94;100772.98;112083;1263;18861;-38
2023/06/26 07:59:59;;;;;;;;;16.67;16.00;;;;;25.67;52.07;100775.17;112100;1260;20886;-37
2023/06/26 08:02:26;;;;;;;;;16.00;16.00;;;;;25.82;51.96;100775.83;112300;1263;20490;-39
2023/06/26 08:04:54;;;;;;;;;19.00;18.00;;;;;25.75;51.77;100769.09;112131;1247;18857;-37
2023/06/26 08:07:21;;;;;;;;;18.00;17.00;;;;;25.77;51.75;100769.55;112310;1248;20865;-37
2023/06/26 08:09:48;;;;;;;;;17.00;17.00;;;;;25.90;51.62;100767.42;112186;1263;21827;-37
2023/06/26 08:12:16;;;;;;;;;18.50;17.00;;;;;25.84;51.51;100770.28;112195;1248;19996;-37
2023/06/26 08:14:43;;;;;;;;;21.50;19.00;;;;;25.75;51.61;100768.89;112184;1263;19301;-37
2023/06/26 08:17:10;;;;;;;;;19.00;18.00;;;;;25.83;50.98;100767.80;112064;1263;20236;-38
2023/06/26 08:19:38;;;;;;;;;17.00;17.00;;;;;25.78;50.34;100763.73;112185;1263;19965;-38
2023/06/26 08:22:05;;;;;;;;;18.00;15.00;;;;;25.72;50.41;100761.44;112094;1248;19734;-38
2023/06/26 08:24:32;;;;;;;;;18.00;17.00;;;;;25.79;50.51;100760.31;112254;1248;22846;-38
2023/06/26 08:27:00;;;;;;;;;21.00;18.00;;;;;26.10;50.66;100751.20;112106;1263;18641;-38
2023/06/26 08:29:27;;;;;;;;;19.33;18.00;;;;;26.24;50.62;100749.04;112270;1251;21025;-38
2023/06/26 08:31:54;;;;;;;;;17.67;16.67;;;;;26.11;50.69;100746.45;112095;1248;21538;-38
2023/06/26 08:34:21;;;;;;;;;18.00;18.00;;;;;26.21;50.87;100748.81;112290;1247;20087;-38
2023/06/26 08:36:49;;;;;;;;;19.00;18.00;;;;;26.13;50.96;100749.24;112132;1251;21283;-38
2023/06/26 08:39:16;;;;;;;;;18.67;17.33;;;;;26.11;51.21;100746.13;112284;1262;20105;-38
2023/06/26 08:41:43;;;;;;;;;19.00;18.00;;;;;26.32;50.56;100744.03;112176;1247;18770;-38
2023/06/26 08:44:11;;;;;;;;;21.50;19.00;;;;;26.32;50.61;100745.31;112296;1263;19386;-38
2023/06/26 08:46:39;;;;;;;;;24.00;21.00;;;;;26.20;49.88;100745.73;112165;1263;20548;-38
2023/06/26 08:49:06;;;;;;;;;18.50;17.00;;;;;25.97;50.38;100741.56;112300;1263;20158;-38
2023/06/26 08:51:34;;;;;;;;;19.67;17.00;;;;;25.82;50.52;100739.41;112148;1248;20869;-38
2023/06/26 08:54:01;;;;;;;;;17.33;15.00;;;;;25.65;50.37;100741.35;112290;1248;21716;-40
2023/06/26 08:56:28;;;;;;;;;19.00;18.00;;;;;25.61;50.15;100740.71;112153;1248;20030;-39
2023/06/26 08:58:56;;;;;;;;;17.00;15.00;;;;;25.63;49.84;100737.66;112269;1259;21114;-38
2023/06/26 09:01:24;;;;;;;;;20.00;18.50;;;;;25.88;48.81;100734.80;112183;1248;21310;-38
2023/06/26 09:03:51;;;;;;;;;19.00;19.00;;;;;25.85;48.54;100733.00;112293;1248;20253;-39
2023/06/26 09:06:19;;;;;;;;;15.00;15.00;;;;;25.74;48.76;100731.19;112124;1263;19446;-39
2023/06/26 09:08:46;;;;;;;;;14.50;14.00;;;;;25.73;48.91;100732.20;112349;1263;20223;-38
2023/06/26 09:11:13;;;;;;;;;16.00;14.33;;;;;25.67;48.94;100732.81;112163;1248;20017;-38
2023/06/26 09:13:41;;;;;;;;;16.33;14.33;;;;;25.76;48.61;100728.33;112209;1248;20829;-37
2023/06/26 09:16:08;;;;;;;;;15.00;15.00;;;;;26.01;48.27;100728.51;112163;1256;21539;-38
2023/06/26 09:18:36;;;;;;;;;18.00;18.00;;;;;25.87;48.48;100727.25;112245;1255;18753;-37
2023/06/26 09:21:03;;;;;;;;;19.00;17.00;;;;;25.87;48.59;100722.02;112218;1248;21047;-38
2023/06/26 09:23:31;;;;;;;;;18.50;18.00;;;;;26.23;47.56;100722.02;112178;1248;21923;-37
2023/06/26 09:25:58;;;;;;;;;20.00;18.00;;;;;26.21;47.63;100720.33;112190;1256;19891;-38
2023/06/26 09:28:25;;;;;;;;;15.00;15.00;;;;;26.22;47.57;100720.58;112137;1256;20649;-38
2023/06/26 09:30:53;;;;;;;;;20.00;17.00;;;;;26.02;47.59;100720.56;112206;1248;21921;-38
2023/06/26 09:33:20;;;;;;;;;14.50;14.50;;;;;25.97;47.40;100721.40;112105;1263;20435;-38
2023/06/26 09:35:47;;;;;;;;;16.00;13.50;;;;;26.02;47.12;100719.13;112227;1247;21276;-38
2023/06/26 09:38:15;;;;;;;;;21.00;18.00;;;;;26.13;46.98;100719.42;112114;1263;20257;-38
2023/06/26 09:40:42;;;;;;;;;15.00;15.00;;;;;26.11;46.56;100719.63;112264;1262;18612;-39
2023/06/26 09:43:09;;;;;;;;;14.00;13.00;;;;;26.04;46.70;100717.90;112106;1248;20917;-37
2023/06/26 09:45:37;;;;;;;;;20.00;15.00;;;;;26.03;46.84;100714.23;112252;1263;20066;-37
2023/06/26 09:48:04;;;;;;;;;15.00;15.00;;;;;26.29;46.35;100709.88;112099;1256;18815;-38
2023/06/26 09:50:33;;;;;;;;;15.00;14.00;;;;;26.47;46.35;100708.84;112262;1248;20871;-38
2023/06/26 09:53:01;;;;;;;;;14.50;14.00;;;;;26.59;44.99;100710.13;112238;1263;22914;-38
2023/06/26 09:55:28;;;;;;;;;15.50;15.00;;;;;26.65;44.59;100709.94;112165;1248;21215;-38
2023/06/26 09:57:56;;;;;;;;;20.00;15.00;;;;;26.44;44.72;100708.48;112152;1248;20722;-39
2023/06/26 10:00:23;;;;;;;;;18.00;16.00;;;;;26.37;44.96;100706.87;112149;1263;20122;-39
2023/06/26 10:02:51;;;;;;;;;18.00;16.00;;;;;26.53;44.89;100704.80;112159;1248;19920;-38
2023/06/26 10:05:18;;;;;;;;;14.00;12.33;;;;;26.91;43.59;100697.25;112187;1248;19437;-39
2023/06/26 10:07:45;;;;;;;;;14.00;14.00;;;;;26.81;42.75;100694.98;112037;1247;21494;-39
2023/06/26 10:10:13;;;;;;;;;13.67;12.00;;;;;26.47;43.38;100689.56;112213;1248;20023;-39
2023/06/26 10:12:40;;;;;;;;;16.50;15.50;;;;;26.15;44.45;100690.67;112083;1263;23153;-39
2023/06/26 10:15:10;;;;;;;;;18.33;18.00;;;;;26.06;45.07;100685.58;112195;1248;21411;-38
2023/06/26 10:17:38;;;;;;;;;19.33;16.00;;;;;26.04;45.29;100683.09;112200;1263;18925;-39
2023/06/26 10:20:06;;;;;;;;;16.00;15.00;;;;;26.05;45.59;100680.80;112080;1248;20772;-39
2023/06/26 10:22:33;;;;;;;;;17.00;15.00;;;;;26.02;45.66;100680.13;112177;1248;23298;-39
2023/06/26 10:25:01;;;;;;;;;18.00;14.67;;;;;26.08;45.20;100677.42;112192;1248;19409;-39
2023/06/26 10:27:28;;;;;;;;;15.00;12.00;;;;;26.04;45.25;100677.38;112189;1257;21097;-39
2023/06/26 10:29:55;;;;;;;;;18.67;15.33;;;;;25.98;45.33;100678.65;112107;1255;20417;-40
2023/06/26 10:32:23;;;;;;;;;13.50;13.00;;;;;25.98;44.94;100671.77;112240;1248;20079;-39
2023/06/26 10:34:50;;;;;;;;;15.50;13.50;;;;;25.90;45.16;100670.64;112045;1256;21178;-40
2023/06/26 10:37:17;;;;;;;;;22.50;21.50;;;;;25.82;45.46;100669.29;112180;1263;20115;-39
2023/06/26 10:39:45;;;;;;;;;15.50;15.50;;;;;26.05;45.38;100669.30;112110;1248;18711;-39
2023/06/26 10:42:12;;;;;;;;;16.00;14.50;;;;;26.05;45.14;100667.48;112248;1248;21386;-39
2023/06/26 10:44:39;;;;;;;;;17.33;15.33;;;;;25.92;45.57;100665.10;112129;1256;21671;-39
2023/06/26 10:47:07;;;;;;;;;17.00;16.00;;;;;25.83;45.78;100665.19;112260;1248;20042;-39
2023/06/26 10:49:34;;;;;;;;;18.00;15.00;;;;;26.07;45.04;100660.39;112105;1248;21029;-40
2023/06/26 10:52:01;;;;;;;;;13.00;13.00;;;;;26.27;44.73;100656.79;112263;1248;21493;-39
2023/06/26 10:54:29;;;;;;;;;14.00;14.00;;;;;26.39;44.59;100650.92;112120;1263;20101;-39
2023/06/26 10:56:57;;;;;;;;;18.67;15.00;;;;;26.49;43.87;100648.55;112287;1255;21039;-39
2023/06/26 10:59:24;;;;;;;;;19.50;17.00;;;;;26.55;43.38;100645.34;112082;1263;22782;-38
2023/06/26 11:01:51;;;;;;;;;17.00;14.33;;;;;26.33;43.68;100642.95;112250;1248;18649;-39